createdAt,value
2019-03-17T00:00:13.926Z,2.23
2019-03-17T00:02:42.514Z,1.40
2019-03-17T00:05:11.219Z,3.03
2019-03-17T00:07:39.873Z,2.40
2019-03-17T00:10:08.611Z,5.47
2019-03-17T00:12:37.343Z,5.10
2019-03-17T00:15:06.902Z,6.40
2019-03-17T00:17:35.494Z,6.40
2019-03-17T00:20:07.867Z,3.83
2019-03-17T00:22:36.551Z,3.65
2019-03-17T00:25:09.447Z,3.37
2019-03-17T00:27:36.645Z,3.57
2019-03-17T00:30:08.141Z,3.10
2019-03-17T00:32:36.816Z,3.00
2019-03-17T00:35:06.634Z,2.73
2019-03-17T00:37:35.190Z,3.00
2019-03-17T00:40:05.367Z,2.83
2019-03-17T00:42:33.955Z,3.50
2019-03-17T00:45:02.536Z,3.20
2019-03-17T00:47:31.106Z,3.23
2019-03-17T00:49:59.671Z,2.90
2019-03-17T00:52:28.293Z,3.10
2019-03-17T00:54:56.890Z,2.90
2019-03-17T00:57:25.442Z,2.47
2019-03-17T00:59:54.006Z,2.70
2019-03-17T01:02:22.841Z,2.50
2019-03-17T01:04:56.069Z,2.30
2019-03-17T01:07:21.902Z,3.10
2019-03-17T01:09:50.418Z,2.37
2019-03-17T01:12:19.086Z,2.87
2019-03-17T01:14:47.647Z,2.50
2019-03-17T01:17:16.333Z,2.90
2019-03-17T01:19:44.910Z,2.47
2019-03-17T01:22:13.897Z,2.83
2019-03-17T01:24:42.506Z,2.47
2019-03-17T01:27:11.130Z,1.97
2019-03-17T01:29:39.921Z,2.07
2019-03-17T01:32:08.476Z,1.83
2019-03-17T01:34:37.071Z,1.97
2019-03-17T01:37:05.634Z,2.00
2019-03-17T01:39:34.226Z,2.20
2019-03-17T01:42:02.914Z,1.87
2019-03-17T01:44:31.572Z,1.67
2019-03-17T01:47:00.138Z,1.80
2019-03-17T01:49:28.771Z,2.20
2019-03-17T01:51:57.582Z,1.53
2019-03-17T01:54:26.133Z,1.57
2019-03-17T01:56:54.950Z,1.50
2019-03-17T01:59:23.538Z,1.60
2019-03-17T02:01:52.122Z,1.80
2019-03-17T02:04:20.773Z,1.80
2019-03-17T02:06:49.402Z,1.83
2019-03-17T02:09:18.022Z,2.30
2019-03-17T02:11:46.683Z,2.20
2019-03-17T02:14:15.241Z,2.43
2019-03-17T02:16:43.847Z,2.70
2019-03-17T02:19:12.539Z,2.03
2019-03-17T02:21:41.105Z,2.30
2019-03-17T02:24:10.010Z,1.93
2019-03-17T02:26:38.566Z,2.03
2019-03-17T02:29:07.138Z,2.23
2019-03-17T02:31:35.766Z,1.83
2019-03-17T02:34:04.457Z,1.93
2019-03-17T02:36:33.590Z,2.47
2019-03-17T02:39:02.160Z,2.40
2019-03-17T02:41:30.747Z,2.60
2019-03-17T02:43:59.366Z,3.20
2019-03-17T02:46:27.960Z,5.83
2019-03-17T02:48:56.688Z,5.03
2019-03-17T02:51:25.384Z,5.10
2019-03-17T02:53:53.891Z,3.60
2019-03-17T02:56:22.552Z,4.00
2019-03-17T02:58:51.139Z,3.60
2019-03-17T03:01:19.698Z,3.03
2019-03-17T03:03:48.268Z,2.80
2019-03-17T03:06:16.922Z,2.40
2019-03-17T03:08:45.855Z,2.40
2019-03-17T03:11:14.456Z,2.07
2019-03-17T03:13:43.090Z,2.53
2019-03-17T03:16:11.699Z,1.90
2019-03-17T03:18:40.356Z,2.00
2019-03-17T03:21:09.073Z,2.23
2019-03-17T03:23:37.623Z,2.43
2019-03-17T03:26:06.221Z,2.03
2019-03-17T03:28:34.791Z,2.40
2019-03-17T03:31:03.430Z,2.10
2019-03-17T03:33:31.970Z,2.10
2019-03-17T03:36:10.593Z,2.00
2019-03-17T03:38:30.818Z,2.20
2019-03-17T03:40:59.785Z,2.20
2019-03-17T03:43:28.647Z,2.07
2019-03-17T03:45:57.263Z,2.20
2019-03-17T03:48:25.861Z,2.33
2019-03-17T03:50:54.421Z,2.20
2019-03-17T03:53:22.993Z,2.40
2019-03-17T03:55:51.595Z,2.43
2019-03-17T03:58:20.216Z,2.73
2019-03-17T04:00:48.763Z,2.77
2019-03-17T04:03:17.613Z,3.23
2019-03-17T04:05:46.275Z,2.47
2019-03-17T04:08:14.835Z,3.10
2019-03-17T04:10:43.724Z,2.67
2019-03-17T04:13:12.279Z,2.30
2019-03-17T04:15:40.944Z,2.40
2019-03-17T04:18:09.548Z,2.60
2019-03-17T04:20:38.280Z,2.20
2019-03-17T04:23:07.134Z,2.70
2019-03-17T04:25:35.723Z,2.90
2019-03-17T04:28:04.641Z,2.40
2019-03-17T04:30:33.233Z,2.83
2019-03-17T04:33:01.815Z,2.40
2019-03-17T04:35:30.439Z,2.80
2019-03-17T04:37:59.020Z,2.63
2019-03-17T04:40:27.606Z,2.03
2019-03-17T04:42:56.305Z,2.07
2019-03-17T04:45:24.901Z,2.37
2019-03-17T04:47:53.802Z,2.37
2019-03-17T04:50:22.324Z,2.60
2019-03-17T04:52:50.919Z,2.50
2019-03-17T04:55:19.550Z,2.27
2019-03-17T04:57:48.113Z,2.20
2019-03-17T05:00:16.891Z,2.23
2019-03-17T05:02:45.517Z,2.13
2019-03-17T05:05:14.167Z,2.27
2019-03-17T05:07:42.827Z,2.20
2019-03-17T05:10:11.709Z,2.23
2019-03-17T05:12:40.634Z,2.33
2019-03-17T05:15:11.388Z,2.63
2019-03-17T05:17:40.088Z,2.23
2019-03-17T05:20:10.557Z,2.53
2019-03-17T05:22:39.517Z,2.37
2019-03-17T05:25:08.412Z,1.93
2019-03-17T05:27:36.999Z,1.90
2019-03-17T05:30:10.787Z,1.83
2019-03-17T05:32:39.443Z,2.30
2019-03-17T05:35:09.215Z,2.00
2019-03-17T05:37:37.786Z,1.73
2019-03-17T05:40:08.947Z,2.00
2019-03-17T05:42:40.331Z,1.90
2019-03-17T05:45:09.044Z,3.03
2019-03-17T05:47:37.622Z,3.13
2019-03-17T05:50:08.551Z,2.83
2019-03-17T05:52:37.146Z,3.33
2019-03-17T05:55:08.366Z,2.27
2019-03-17T05:57:36.951Z,2.40
2019-03-17T06:00:08.602Z,3.30
2019-03-17T06:02:37.234Z,3.00
2019-03-17T06:05:07.754Z,2.93
2019-03-17T06:07:36.350Z,3.10
2019-03-17T06:10:06.841Z,2.40
2019-03-17T06:12:35.406Z,2.80
2019-03-17T06:15:05.826Z,2.40
2019-03-17T06:17:34.409Z,2.43
2019-03-17T06:20:03.349Z,3.07
2019-03-17T06:22:31.866Z,3.50
2019-03-17T06:25:00.456Z,3.37
2019-03-17T06:27:46.061Z,2.53
2019-03-17T06:30:14.842Z,2.63
2019-03-17T06:32:43.497Z,2.90
2019-03-17T06:35:12.163Z,2.60
2019-03-17T06:37:40.788Z,2.70
2019-03-17T06:40:12.721Z,3.37
2019-03-17T06:42:41.311Z,3.35
2019-03-17T06:45:10.901Z,4.20
2019-03-17T06:47:41.077Z,4.43
2019-03-17T06:50:12.217Z,3.07
2019-03-17T06:52:40.955Z,2.20
2019-03-17T06:55:17.224Z,2.27
2019-03-17T06:57:45.915Z,2.40
2019-03-17T07:00:15.126Z,4.27
2019-03-17T07:02:43.855Z,3.63
2019-03-17T07:05:12.829Z,2.30
2019-03-17T07:07:44.419Z,2.40
2019-03-17T07:10:12.173Z,3.70
2019-03-17T07:12:40.786Z,5.60
2019-03-17T07:15:11.425Z,7.03
2019-03-17T07:17:40.664Z,3.77
2019-03-17T07:20:14.355Z,10.37
2019-03-17T07:22:42.962Z,4.13
2019-03-17T07:25:11.787Z,3.97
2019-03-17T07:27:40.490Z,4.87
2019-03-17T07:30:14.169Z,3.77
2019-03-17T07:32:44.012Z,2.63
2019-03-17T07:35:12.906Z,4.00
2019-03-17T07:37:41.530Z,8.67
2019-03-17T07:40:12.141Z,5.67
2019-03-17T07:42:40.980Z,3.40
2019-03-17T07:45:11.219Z,3.63
2019-03-17T07:47:40.105Z,3.33
2019-03-17T07:50:11.582Z,2.53
2019-03-17T07:52:40.231Z,2.73
2019-03-17T07:55:11.845Z,3.17
2019-03-17T07:57:46.974Z,2.53
2019-03-17T08:00:15.635Z,3.20
2019-03-17T08:02:45.227Z,4.30
2019-03-17T08:05:13.923Z,2.80
2019-03-17T08:07:42.554Z,3.17
2019-03-17T08:10:15.307Z,2.93
2019-03-17T08:12:43.935Z,4.20
2019-03-17T08:15:13.620Z,3.40
2019-03-17T08:17:42.367Z,3.77
2019-03-17T08:20:14.582Z,2.77
2019-03-17T08:22:43.389Z,4.25
2019-03-17T08:25:12.850Z,3.30
2019-03-17T08:27:41.705Z,3.23
2019-03-17T08:30:13.225Z,3.30
2019-03-17T08:32:41.801Z,2.67
2019-03-17T08:35:11.322Z,3.30
2019-03-17T08:37:40.189Z,3.43
2019-03-17T08:40:16.837Z,3.17
2019-03-17T08:42:45.551Z,3.20
2019-03-17T08:45:14.857Z,2.97
2019-03-17T08:47:56.551Z,2.87
2019-03-17T08:50:15.357Z,2.97
2019-03-17T08:52:44.104Z,3.03
2019-03-17T08:55:12.962Z,2.40
2019-03-17T08:57:41.790Z,3.63
2019-03-17T09:00:16.566Z,3.07
2019-03-17T09:02:45.442Z,2.90
2019-03-17T09:05:14.127Z,3.10
2019-03-17T09:07:44.112Z,3.00
2019-03-17T09:10:14.454Z,2.30
2019-03-17T09:12:43.135Z,3.10
2019-03-17T09:15:11.952Z,2.47
2019-03-17T09:17:40.638Z,2.80
2019-03-17T09:20:14.779Z,2.93
2019-03-17T09:22:43.513Z,3.43
2019-03-17T09:25:12.502Z,2.90
2019-03-17T09:27:41.252Z,2.50
2019-03-17T09:30:17.033Z,3.10
2019-03-17T09:32:46.250Z,2.77
2019-03-17T09:35:14.861Z,2.90
2019-03-17T09:37:43.623Z,2.80
2019-03-17T09:40:14.050Z,3.00
2019-03-17T09:42:42.754Z,2.70
2019-03-17T09:45:12.902Z,2.20
2019-03-17T09:47:41.671Z,2.33
2019-03-17T09:50:13.458Z,2.63
2019-03-17T09:52:42.122Z,2.27
2019-03-17T09:55:10.849Z,2.53
2019-03-17T09:57:39.410Z,3.77
2019-03-17T10:00:16.104Z,4.43
2019-03-17T10:02:44.770Z,2.97
2019-03-17T10:05:13.519Z,3.10
2019-03-17T10:07:42.328Z,3.73
2019-03-17T10:10:14.323Z,2.40
2019-03-17T10:12:43.190Z,3.10
2019-03-17T10:15:14.361Z,2.60
2019-03-17T10:17:43.152Z,3.13
2019-03-17T10:20:16.382Z,3.63
2019-03-17T10:22:45.114Z,3.60
2019-03-17T10:25:14.311Z,3.70
2019-03-17T10:27:43.401Z,3.17
2019-03-17T10:30:14.843Z,3.60
2019-03-17T10:32:43.502Z,5.63
2019-03-17T10:35:12.300Z,4.10
2019-03-17T10:37:40.892Z,2.90
2019-03-17T10:40:12.654Z,3.40
2019-03-17T10:42:41.245Z,4.10
2019-03-17T10:45:11.635Z,3.43
2019-03-17T10:47:40.310Z,3.30
2019-03-17T10:50:17.448Z,3.80
2019-03-17T10:52:46.123Z,6.37
2019-03-17T10:55:14.891Z,4.60
2019-03-17T10:57:43.494Z,3.40
2019-03-17T11:00:17.264Z,3.43
2019-03-17T11:02:45.918Z,4.10
2019-03-17T11:05:14.651Z,4.20
2019-03-17T11:07:43.399Z,3.90
2019-03-17T11:10:13.718Z,4.80
2019-03-17T11:12:42.440Z,3.97
2019-03-17T11:15:16.951Z,4.97
2019-03-17T11:17:50.448Z,4.50
2019-03-17T11:20:19.657Z,5.20
2019-03-17T11:22:48.381Z,6.00
2019-03-17T11:25:20.654Z,4.03
2019-03-17T11:27:49.347Z,4.75
2019-03-17T11:30:19.057Z,5.13
2019-03-17T11:32:48.255Z,5.30
2019-03-17T11:35:17.013Z,4.33
2019-03-17T11:37:45.754Z,5.93
2019-03-17T11:40:16.581Z,5.17
2019-03-17T11:42:45.512Z,5.67
2019-03-17T11:45:15.337Z,4.87
2019-03-17T11:47:44.584Z,5.93
2019-03-17T11:50:15.219Z,6.40
2019-03-17T11:52:44.100Z,5.20
2019-03-17T11:55:13.294Z,4.63
2019-03-17T11:57:42.699Z,4.90
2019-03-17T12:00:16.481Z,5.37
2019-03-17T12:02:45.189Z,5.53
2019-03-17T12:05:15.197Z,5.23
2019-03-17T12:07:43.898Z,4.20
2019-03-17T12:10:15.020Z,5.20
2019-03-17T12:12:43.755Z,5.33
2019-03-17T12:15:27.133Z,5.73
2019-03-17T12:17:55.939Z,4.80
2019-03-17T12:20:24.563Z,4.47
2019-03-17T12:22:53.154Z,4.70
2019-03-17T12:25:21.856Z,4.37
2019-03-17T12:27:50.616Z,4.00
2019-03-17T12:30:26.506Z,4.77
2019-03-17T12:32:56.053Z,5.33
2019-03-17T12:35:24.681Z,4.77
2019-03-17T12:37:53.297Z,4.27
2019-03-17T12:40:21.985Z,4.47
2019-03-17T12:42:50.954Z,4.97
2019-03-17T12:45:21.447Z,6.57
2019-03-17T12:47:50.260Z,5.97
2019-03-17T12:50:25.871Z,6.30
2019-03-17T12:52:54.464Z,5.57
2019-03-17T12:55:23.022Z,5.80
2019-03-17T12:57:51.662Z,5.97
2019-03-17T13:00:22.294Z,5.90
2019-03-17T13:02:50.873Z,6.33
2019-03-17T13:05:19.852Z,6.47
2019-03-17T13:07:48.378Z,6.93
2019-03-17T13:10:18.648Z,6.60
2019-03-17T13:12:47.632Z,6.20
2019-03-17T13:15:16.547Z,6.07
2019-03-17T13:17:45.418Z,6.93
2019-03-17T13:20:19.023Z,6.97
2019-03-17T13:22:47.586Z,5.90
2019-03-17T13:25:16.310Z,5.90
2019-03-17T13:27:45.042Z,7.13
2019-03-17T13:30:18.551Z,6.63
2019-03-17T13:32:47.354Z,6.43
2019-03-17T13:35:16.298Z,6.00
2019-03-17T13:37:44.979Z,6.40
2019-03-17T13:40:28.337Z,6.80
2019-03-17T13:42:46.495Z,5.90
2019-03-17T13:45:15.685Z,7.10
2019-03-17T13:47:44.684Z,6.53
2019-03-17T13:50:18.587Z,7.07
2019-03-17T13:52:47.178Z,6.70
2019-03-17T13:55:16.962Z,6.90
2019-03-17T13:58:06.141Z,7.37
2019-03-17T14:00:34.865Z,7.47
2019-03-17T14:03:03.746Z,7.63
2019-03-17T14:05:32.557Z,8.00
2019-03-17T14:08:01.257Z,8.73
2019-03-17T14:10:40.975Z,9.07
2019-03-17T14:13:05.014Z,7.80
2019-03-17T14:15:33.722Z,10.87
2019-03-17T14:18:02.458Z,13.63
2019-03-17T14:20:31.187Z,13.13
2019-03-17T14:22:59.810Z,10.67
2019-03-17T14:25:33.937Z,12.00
2019-03-17T14:28:02.794Z,10.33
2019-03-17T14:30:31.538Z,11.17
2019-03-17T14:33:00.112Z,10.93
2019-03-17T14:35:28.788Z,12.37
2019-03-17T14:37:57.624Z,12.90
2019-03-17T14:40:26.420Z,11.80
2019-03-17T14:42:55.795Z,12.27
2019-03-17T14:45:24.639Z,12.60
2019-03-17T14:47:53.512Z,13.17
2019-03-17T14:50:24.425Z,12.17
2019-03-17T14:52:53.456Z,14.47
2019-03-17T14:55:22.317Z,14.33
2019-03-17T14:57:51.080Z,13.40
2019-03-17T15:00:23.331Z,14.87
2019-03-17T15:02:52.071Z,14.23
2019-03-17T15:05:20.859Z,13.90
2019-03-17T15:07:49.469Z,14.30
2019-03-17T15:10:23.219Z,15.43
2019-03-17T15:12:51.875Z,15.03
2019-03-17T15:15:21.671Z,15.77
2019-03-17T15:17:50.727Z,16.83
2019-03-17T15:20:27.702Z,16.20
2019-03-17T15:22:56.695Z,16.37
2019-03-17T15:25:25.685Z,16.87
2019-03-17T15:27:54.675Z,16.50
2019-03-17T15:30:28.336Z,16.70
2019-03-17T15:32:58.992Z,17.03
2019-03-17T15:35:27.363Z,17.80
2019-03-17T15:37:56.491Z,17.77
2019-03-17T15:40:25.081Z,18.30
2019-03-17T15:42:53.824Z,17.97
2019-03-17T15:45:24.700Z,18.63
2019-03-17T15:47:53.668Z,18.87
2019-03-17T15:50:26.502Z,17.27
2019-03-17T15:55:23.402Z,18.10
2019-03-17T15:57:52.284Z,18.50
2019-03-17T16:00:25.417Z,19.10
2019-03-17T16:02:52.726Z,30.57
2019-03-17T16:05:21.618Z,27.00
2019-03-17T16:07:50.537Z,21.60
2019-03-17T16:10:30.670Z,21.97
2019-03-17T16:12:59.333Z,25.83
2019-03-17T16:15:28.212Z,25.97
2019-03-17T16:17:57.082Z,23.47
2019-03-17T16:20:26.686Z,21.03
2019-03-17T16:22:55.358Z,21.43
2019-03-17T16:25:28.829Z,24.27
2019-03-17T16:27:57.496Z,20.27
2019-03-17T16:30:30.602Z,23.33
2019-03-17T16:32:59.610Z,35.20
2019-03-17T16:35:28.274Z,25.00
2019-03-17T16:37:57.006Z,27.20
2019-03-17T16:40:27.570Z,25.80
2019-03-17T16:42:56.624Z,25.97
2019-03-17T16:45:25.698Z,24.60
2019-03-17T16:47:54.591Z,23.47
2019-03-17T16:50:24.869Z,23.03
2019-03-17T16:52:53.558Z,23.97
2019-03-17T16:55:22.316Z,26.00
2019-03-17T16:57:50.960Z,24.90
2019-03-17T17:00:21.001Z,27.43
2019-03-17T17:02:50.183Z,25.20
2019-03-17T17:05:20.024Z,25.10
2019-03-17T17:07:49.323Z,23.13
2019-03-17T17:10:25.565Z,24.87
2019-03-17T17:12:54.237Z,22.67
2019-03-17T17:15:25.935Z,23.67
2019-03-17T17:17:54.811Z,23.17
2019-03-17T17:20:26.423Z,24.07
2019-03-17T17:22:55.252Z,24.17
2019-03-17T17:25:24.127Z,22.47
2019-03-17T17:27:52.860Z,24.20
2019-03-17T17:30:21.496Z,23.13
2019-03-17T17:32:50.190Z,24.17
2019-03-17T17:35:19.279Z,23.43
2019-03-17T17:37:48.013Z,25.40
2019-03-17T17:40:21.120Z,24.37
2019-03-17T17:42:49.886Z,22.77
2019-03-17T17:45:22.512Z,25.60
2019-03-17T17:47:51.213Z,24.15
2019-03-17T17:50:21.978Z,23.33
2019-03-17T17:52:50.656Z,23.57
2019-03-17T17:55:19.497Z,22.30
2019-03-17T17:57:48.486Z,24.20
2019-03-17T18:00:22.676Z,22.73
2019-03-17T18:02:51.334Z,22.80
2019-03-17T18:05:20.059Z,23.13
2019-03-17T18:07:48.738Z,23.87
2019-03-17T18:10:20.874Z,23.17
2019-03-17T18:12:49.607Z,24.10
2019-03-17T18:15:21.874Z,24.47
2019-03-17T18:17:50.586Z,25.12
2019-03-17T18:20:19.392Z,22.67
2019-03-17T18:22:47.947Z,25.60
2019-03-17T18:25:22.818Z,24.00
2019-03-17T18:27:51.417Z,20.83
2019-03-17T18:30:22.248Z,22.77
2019-03-17T18:32:51.022Z,23.47
2019-03-17T18:35:19.813Z,22.63
2019-03-17T18:37:51.074Z,21.93
2019-03-17T18:40:20.224Z,24.07
2019-03-17T18:42:49.348Z,23.27
2019-03-17T18:45:22.858Z,21.60
2019-03-17T18:47:51.524Z,25.07
2019-03-17T18:50:21.273Z,22.50
2019-03-17T18:52:51.496Z,23.30
2019-03-17T18:55:20.111Z,23.50
2019-03-17T18:57:48.814Z,25.60
2019-03-17T19:00:18.679Z,25.37
2019-03-17T19:02:47.619Z,22.53
2019-03-17T19:05:19.895Z,23.40
2019-03-17T19:07:47.766Z,24.27
2019-03-17T19:10:17.604Z,23.47
2019-03-17T19:12:46.538Z,24.37
2019-03-17T19:15:19.895Z,23.67
2019-03-17T19:17:57.569Z,24.07
2019-03-17T19:20:26.210Z,23.23
2019-03-17T19:22:54.788Z,23.70
2019-03-17T19:25:24.818Z,23.80
2019-03-17T19:27:53.601Z,23.43
2019-03-17T19:30:23.100Z,24.40
2019-03-17T19:32:52.092Z,23.37
2019-03-17T19:35:20.788Z,22.67
2019-03-17T19:37:50.012Z,21.73
2019-03-17T19:40:24.371Z,22.60
2019-03-17T19:42:59.101Z,23.33
2019-03-17T19:45:23.433Z,23.63
2019-03-17T19:47:52.115Z,23.10
2019-03-17T19:50:22.790Z,22.90
2019-03-17T19:52:51.367Z,24.20
2019-03-17T19:55:20.822Z,23.70
2019-03-17T19:57:49.518Z,23.30
2019-03-17T20:00:22.457Z,23.80
2019-03-17T20:02:51.134Z,23.47
2019-03-17T20:05:19.915Z,24.30
2019-03-17T20:07:48.690Z,23.73
2019-03-17T20:10:23.361Z,22.10
2019-03-17T20:12:52.124Z,22.47
2019-03-17T20:15:20.776Z,22.97
2019-03-17T20:17:49.580Z,22.90
2019-03-17T20:20:18.261Z,22.00
2019-03-17T20:22:46.935Z,23.60
2019-03-17T20:25:15.770Z,22.30
2019-03-17T20:27:44.416Z,21.97
2019-03-17T20:30:17.947Z,22.60
2019-03-17T20:32:46.972Z,22.50
2019-03-17T20:35:15.590Z,22.63
2019-03-17T20:37:44.246Z,24.53
2019-03-17T20:40:14.210Z,23.67
2019-03-17T20:42:42.885Z,23.00
2019-03-17T20:45:13.124Z,23.30
2019-03-17T20:47:42.022Z,22.40
2019-03-17T20:50:18.394Z,23.27
2019-03-17T20:52:47.115Z,23.97
2019-03-17T20:55:15.701Z,23.67
2019-03-17T20:57:44.404Z,24.10
2019-03-17T21:00:18.047Z,23.57
2019-03-17T21:02:46.781Z,24.20
2019-03-17T21:05:15.530Z,24.03
2019-03-17T21:07:44.262Z,23.13
2019-03-17T21:10:15.113Z,23.27
2019-03-17T21:12:43.825Z,25.73
2019-03-17T21:15:13.805Z,25.33
2019-03-17T21:17:42.471Z,25.73
2019-03-17T21:20:13.518Z,26.53
2019-03-17T21:22:42.239Z,26.50
2019-03-17T21:25:11.818Z,25.67
2019-03-17T21:27:40.497Z,26.23
2019-03-17T21:30:18.151Z,25.50
2019-03-17T21:32:47.423Z,26.07
2019-03-17T21:35:16.155Z,27.40
2019-03-17T21:37:45.016Z,26.87
2019-03-17T21:40:13.787Z,27.87
2019-03-17T21:42:42.459Z,28.87
2019-03-17T21:45:12.173Z,26.90
2019-03-17T21:47:40.998Z,27.40
2019-03-17T21:50:15.457Z,27.43
2019-03-17T21:52:44.144Z,27.40
2019-03-17T21:55:13.999Z,27.23
2019-03-17T21:57:42.993Z,27.83
2019-03-17T22:00:19.011Z,27.87
2019-03-17T22:02:47.958Z,27.70
2019-03-17T22:05:16.675Z,27.93
2019-03-17T22:07:50.103Z,29.43
2019-03-17T22:10:22.987Z,31.07
2019-03-17T22:12:51.587Z,28.87
2019-03-17T22:15:20.236Z,30.73
2019-03-17T22:17:48.951Z,30.60
2019-03-17T22:20:18.186Z,30.40
2019-03-17T22:22:46.894Z,29.70
2019-03-17T22:25:16.433Z,28.47
2019-03-17T22:27:45.097Z,31.83
2019-03-17T22:30:18.894Z,30.87
2019-03-17T22:32:47.711Z,30.97
2019-03-17T22:35:16.509Z,29.77
2019-03-17T22:37:45.201Z,29.87
2019-03-17T22:40:19.934Z,30.90
2019-03-17T22:42:48.533Z,30.87
2019-03-17T22:45:17.545Z,30.03
2019-03-17T22:47:46.219Z,28.63
2019-03-17T22:50:18.664Z,30.17
2019-03-17T22:52:47.561Z,29.07
2019-03-17T22:55:16.822Z,32.23
2019-03-17T22:57:45.399Z,23.00
2019-03-17T23:00:18.389Z,19.30
2019-03-17T23:02:47.097Z,21.10
2019-03-17T23:05:15.722Z,9.57
2019-03-17T23:07:44.456Z,11.13
2019-03-17T23:10:14.279Z,9.67
2019-03-17T23:12:42.774Z,6.00
2019-03-17T23:15:13.068Z,7.20
2019-03-17T23:17:41.686Z,7.13
2019-03-17T23:20:15.009Z,7.00
2019-03-17T23:22:43.843Z,6.47
2019-03-17T23:25:12.959Z,6.93
2019-03-17T23:27:41.629Z,7.23
2019-03-17T23:30:13.569Z,7.33
2019-03-17T23:32:42.087Z,7.00
2019-03-17T23:35:11.011Z,6.47
2019-03-17T23:37:39.562Z,6.73
2019-03-17T23:40:10.306Z,5.17
2019-03-17T23:42:39.029Z,5.97
2019-03-17T23:45:10.130Z,5.90
2019-03-17T23:47:38.966Z,4.10
2019-03-17T23:50:09.683Z,3.60
2019-03-17T23:52:38.242Z,4.70
2019-03-17T23:55:09.579Z,5.03
2019-03-17T23:57:38.477Z,4.40
